Time;durP1;ratioP1;P1;durP2;ratioP2;P2;SDS_P1;SDS_P2;PMS_P1;PMS_P2;Temp;Humidity;BMP_temperature;BMP_pressure;BME280_temperature;BME280_humidity;BME280_pressure;Samples;Min_cycle;Max_cycle;Signal;HPM_P1;HPM_P2
2023/01/13 07:06:32;;;;;;;15.55;5.10;;;;;;;7.32;99.17;100249.91;5280149;28;20398;-79
2023/01/13 07:09:03;;;;;;;13.85;4.53;;;;;;;7.34;98.71;100247.69;5280405;28;20037;-79
2023/01/13 07:11:35;;;;;;;16.17;4.50;;;;;;;7.36;98.56;100247.41;5280176;28;20025;-79
2023/01/13 07:16:57;;;;;;;14.48;4.47;;;;;;;7.40;97.79;100263.09;5273131;28;20045;-78
2023/01/13 07:19:32;;;;;;;14.77;3.97;;;;;;;7.42;97.30;100249.03;5273892;28;20041;-79
2023/01/13 07:22:06;;;;;;;12.93;4.07;;;;;;;7.43;96.89;100271.94;5277666;23;20037;-70
2023/01/13 07:24:37;;;;;;;17.48;4.75;;;;;;;7.45;97.68;100272.47;5248236;28;20045;-72
2023/01/13 07:27:08;;;;;;;14.23;4.13;;;;;;;7.46;96.10;100260.31;5245191;28;20033;-70
2023/01/13 07:29:42;;;;;;;14.88;3.30;;;;;;;7.41;95.87;100269.44;5257679;28;20044;-69
2023/01/13 07:32:14;;;;;;;13.55;3.28;;;;;;;7.44;95.20;100268.06;5258658;28;20476;-71
2023/01/13 07:34:45;;;;;;;13.55;4.13;;;;;;;7.43;95.13;100267.22;5257421;28;20029;-70
2023/01/13 07:37:17;;;;;;;17.58;4.10;;;;;;;7.45;94.36;100242.94;5257647;28;20045;-71
2023/01/13 07:39:49;;;;;;;13.35;4.60;;;;;;;7.41;95.07;100269.44;5257595;28;20841;-71
2023/01/13 07:45:11;;;;;;;13.43;3.65;;;;;;;7.39;94.92;100282.72;5257864;28;20041;-71
2023/01/13 07:47:45;;;;;;;13.27;3.60;;;;;;;7.40;94.55;100274.16;5252104;28;20029;-71
2023/01/13 07:50:16;;;;;;;14.32;4.10;;;;;;;7.42;94.91;100275.81;5257744;28;20034;-70
2023/01/13 07:52:48;;;;;;;11.25;3.33;;;;;;;7.45;94.83;100281.56;5258694;28;20036;-71
2023/01/13 07:55:19;;;;;;;17.75;4.05;;;;;;;7.43;95.52;100292.06;5256684;28;20087;-71
2023/01/13 07:57:51;;;;;;;14.82;4.85;;;;;;;7.39;95.65;100293.75;5257447;28;20025;-71
2023/01/13 08:00:22;;;;;;;15.07;5.90;;;;;;;7.40;95.90;100289.88;5256483;28;20021;-71
2023/01/13 08:02:53;;;;;;;12.93;4.30;;;;;;;7.40;96.25;100298.16;5257434;28;20472;-73
2023/01/13 08:05:25;;;;;;;20.00;5.15;;;;;;;7.42;96.72;100295.13;5255889;28;20116;-71
2023/01/13 08:07:56;;;;;;;17.13;4.18;;;;;;;7.42;96.18;100308.91;5256384;28;20028;-72
2023/01/13 08:10:28;;;;;;;14.07;4.78;;;;;;;7.39;96.74;100291.81;5257626;28;20022;-70
2023/01/13 08:13:18;;;;;;;15.10;3.70;;;;;;;7.41;96.95;100308.06;5258285;28;20104;-71
2023/01/13 08:15:52;;;;;;;14.07;4.53;;;;;;;7.43;96.99;100305.84;5251705;28;20026;-71
2023/01/13 08:18:23;;;;;;;13.60;4.45;;;;;;;7.38;97.36;100305.88;5243384;28;20029;-71
2023/01/13 08:20:54;;;;;;;18.30;4.55;;;;;;;7.33;97.52;100309.47;5243416;28;20029;-71
2023/01/13 08:23:26;;;;;;;14.00;4.88;;;;;;;7.38;97.79;100301.19;5242808;28;20392;-71
2023/01/13 08:26:02;;;;;;;18.17;4.80;;;;;;;7.45;98.61;100300.06;5243580;28;20569;-71
2023/01/13 08:28:34;;;;;;;16.27;3.95;;;;;;;7.44;97.20;100298.41;5243369;28;20097;-70
2023/01/13 08:31:10;;;;;;;17.80;5.18;;;;;;;7.44;97.53;100306.69;5242862;28;20041;-72
2023/01/13 08:33:41;;;;;;;22.98;4.78;;;;;;;7.43;97.83;100305.03;5243494;28;20067;-72
2023/01/13 08:36:12;;;;;;;12.93;4.80;;;;;;;7.48;97.47;100305.03;5242079;28;20017;-71
2023/01/13 08:38:44;;;;;;;15.30;3.63;;;;;;;7.40;97.98;100285.19;5243325;28;20203;-71
2023/01/13 08:41:53;;;;;;;14.68;4.57;;;;;;;7.42;97.96;100306.97;5243185;28;20369;-72
2023/01/13 08:44:10;;;;;;;16.10;5.65;;;;;;;7.46;97.94;100304.47;5242252;28;20025;-72
2023/01/13 08:46:41;;;;;;;15.60;4.35;;;;;;;7.48;98.10;100302.25;5243108;28;20045;-71
2023/01/13 08:49:12;;;;;;;18.63;5.45;;;;;;;7.52;96.96;100303.38;5243347;28;20018;-72
2023/01/13 08:51:44;;;;;;;17.70;4.07;;;;;;;7.58;97.24;100313.25;5242259;28;20436;-71
2023/01/13 08:54:16;;;;;;;17.45;4.05;;;;;;;7.64;96.35;100301.06;5241751;28;20025;-72
2023/01/13 08:56:48;;;;;;;19.55;5.53;;;;;;;7.74;95.19;100309.31;5243633;28;20092;-70
2023/01/13 08:59:19;;;;;;;15.55;4.50;;;;;;;7.71;95.59;100317.34;5242418;28;20017;-71
2023/01/13 09:01:51;;;;;;;16.50;5.95;;;;;;;7.73;95.73;100324.22;5241231;28;20057;-71
2023/01/13 09:04:26;;;;;;;17.05;4.60;;;;;;;7.75;95.34;100319.25;5241500;28;20377;-71
2023/01/13 09:06:57;;;;;;;22.67;5.88;;;;;;;7.81;95.12;100309.81;5243204;28;20037;-71
2023/01/13 09:09:29;;;;;;;15.48;4.72;;;;;;;7.84;94.45;100311.19;5242921;28;20461;-71
2023/01/13 09:14:50;;;;;;;15.13;4.65;;;;;;;7.84;93.40;100320.28;5235362;28;20136;-71
2023/01/13 09:17:22;;;;;;;18.52;5.45;;;;;;;7.84;93.45;100317.53;5242977;28;20109;-69
2023/01/13 09:19:53;;;;;;;11.93;3.97;;;;;;;7.86;92.67;100319.19;5241553;28;20013;-68
2023/01/13 09:22:26;;;;;;;17.55;4.82;;;;;;;7.86;93.24;100327.47;5242545;28;20495;-69
2023/01/13 09:24:57;;;;;;;13.93;4.40;;;;;;;7.91;92.65;100335.75;5242342;28;20034;-70
2023/01/13 09:27:28;;;;;;;16.13;6.32;;;;;;;7.91;92.51;100344.03;5240519;28;20033;-70
2023/01/13 09:30:00;;;;;;;20.08;5.30;;;;;;;8.03;92.28;100350.03;5241748;28;20029;-70
2023/01/13 09:32:31;;;;;;;16.17;6.03;;;;;;;8.05;91.35;100345.88;5241155;28;20575;-71
2023/01/13 09:35:05;;;;;;;19.77;6.30;;;;;;;8.12;91.85;100370.41;5242727;28;20536;-71
2023/01/13 09:37:40;;;;;;;16.73;4.75;;;;;;;8.07;90.81;100365.72;5242422;28;20029;-71
2023/01/13 09:40:19;;;;;;;17.38;5.57;;;;;;;8.07;91.06;100359.38;5241519;28;20029;-71
2023/01/13 09:45:56;;;;;;;19.10;4.35;;;;;;;8.11;91.26;100359.66;5242266;28;20144;-71
2023/01/13 09:48:50;;;;;;;21.15;5.65;;;;;;;8.11;92.05;100382.56;5241683;28;20079;-72
2023/01/13 09:51:36;;;;;;;17.55;5.88;;;;;;;8.11;91.75;100368.75;5242302;28;20045;-72
2023/01/13 09:54:21;;;;;;;17.30;4.65;;;;;;;8.13;91.84;100383.13;5240983;28;20476;-72
2023/01/13 09:56:52;;;;;;;12.70;5.43;;;;;;;8.08;92.02;100383.16;5242496;28;20112;-71
2023/01/13 09:59:28;;;;;;;20.58;6.13;;;;;;;8.06;92.47;100393.66;5241855;28;20395;-72
2023/01/13 10:02:30;;;;;;;15.68;5.57;;;;;;;8.10;91.96;100386.44;5221589;28;20432;-72
2023/01/13 10:05:23;;;;;;;20.17;5.85;;;;;;;8.08;92.03;100391.44;5227055;28;20071;-73
2023/01/13 10:08:01;;;;;;;17.45;5.40;;;;;;;8.07;92.83;100384.25;5241141;28;20104;-72
2023/01/13 10:10:44;;;;;;;18.70;5.15;;;;;;;8.13;91.70;100373.97;5241552;28;20100;-71
2023/01/13 10:13:21;;;;;;;21.75;5.20;;;;;;;8.18;91.55;100383.09;5244474;28;20041;-70
2023/01/13 10:15:58;;;;;;;23.35;5.90;;;;;;;8.20;92.08;100380.84;5240559;28;20055;-71
2023/01/13 10:18:39;;;;;;;18.20;5.55;;;;;;;8.28;91.44;100384.94;5250705;28;20490;-70
2023/01/13 10:21:25;;;;;;;15.90;5.47;;;;;;;8.35;91.91;100398.47;5262554;28;20029;-73
2023/01/13 10:24:06;;;;;;;24.90;7.05;;;;;;;8.39;92.13;100399.56;5244345;28;20042;-73
2023/01/13 10:26:46;;;;;;;25.13;8.38;;;;;;;8.42;91.72;100394.28;5242177;28;20040;-73
2023/01/13 10:29:28;;;;;;;19.55;5.50;;;;;;;8.43;93.37;100401.47;5239426;28;20041;-73
2023/01/13 10:31:59;;;;;;;16.92;5.70;;;;;;;8.32;93.61;100396.28;5247690;28;20029;-71
2023/01/13 10:34:44;;;;;;;16.08;6.38;;;;;;;8.30;95.09;100385.50;5241348;28;20034;-70
2023/01/13 10:37:21;;;;;;;14.85;5.88;;;;;;;8.26;95.48;100423.09;5240376;28;20056;-71
2023/01/13 10:40:00;;;;;;;22.55;5.97;;;;;;;8.19;97.09;100420.66;5241134;28;20025;-72
2023/01/13 10:42:32;;;;;;;16.27;5.13;;;;;;;8.09;97.58;100434.50;5240102;28;20037;-74
2023/01/13 10:45:03;;;;;;;16.00;4.50;;;;;;;8.02;98.85;100428.47;5241043;28;20112;-73
2023/01/13 10:47:35;;;;;;;16.45;5.43;;;;;;;7.97;99.90;100453.34;5241383;28;20033;-74
2023/01/13 10:50:09;;;;;;;18.73;6.30;;;;;;;7.87;100.00;100447.84;5240370;28;20025;-73
2023/01/13 10:52:57;;;;;;;23.65;5.25;;;;;;;7.82;100.00;100445.91;5240913;28;20040;-74
2023/01/13 10:55:35;;;;;;;17.95;6.80;;;;;;;7.77;100.00;100460.59;5241166;28;20167;-74
2023/01/13 10:58:17;;;;;;;17.42;6.00;;;;;;;7.82;100.00;100444.00;5239720;28;20033;-74
2023/01/13 11:01:02;;;;;;;18.90;6.22;;;;;;;7.80;100.00;100437.94;5230806;28;20037;-74
2023/01/13 11:03:40;;;;;;;22.90;8.82;;;;;;;7.80;100.00;100442.63;5234770;28;20075;-74
2023/01/13 11:06:20;;;;;;;21.58;7.68;;;;;;;7.73;100.00;100433.81;5241098;28;20044;-72
2023/01/13 11:08:54;;;;;;;15.68;4.38;;;;;;;7.75;100.00;100446.22;5240834;28;20017;-74
2023/01/13 11:11:43;;;;;;;18.15;6.20;;;;;;;7.78;100.00;100447.59;5240374;28;20040;-73
2023/01/13 11:14:38;;;;;;;17.25;5.57;;;;;;;7.75;100.00;100440.72;5234567;28;20025;-73
2023/01/13 11:17:12;;;;;;;15.50;5.05;;;;;;;7.79;100.00;100452.81;5221867;28;20029;-72
2023/01/13 11:19:52;;;;;;;20.08;5.35;;;;;;;7.79;100.00;100452.81;5233968;28;21120;-73
2023/01/13 11:22:44;;;;;;;15.13;6.55;;;;;;;7.90;100.00;100452.78;5236492;28;20037;-72
2023/01/13 11:25:32;;;;;;;21.73;5.53;;;;;;;7.87;100.00;100453.38;5237674;28;20443;-73
2023/01/13 11:28:34;;;;;;;17.77;5.13;;;;;;;7.91;98.97;100449.75;5238832;28;20029;-72
2023/01/13 11:31:33;;;;;;;22.75;6.22;;;;;;;8.00;99.04;100472.94;5233154;28;20026;-73
2023/01/13 11:34:27;;;;;;;16.83;4.65;;;;;;;8.02;99.50;100467.13;5237748;28;20055;-74
2023/01/13 11:37:02;;;;;;;16.58;6.00;;;;;;;8.08;98.40;100454.97;5235175;28;20040;-74
2023/01/13 11:39:57;;;;;;;19.60;5.25;;;;;;;8.12;97.98;100471.78;5238013;28;20357;-74
2023/01/13 11:42:46;;;;;;;19.07;5.73;;;;;;;8.10;97.05;100468.47;5239218;28;20373;-76
2023/01/13 11:45:43;;;;;;;13.85;5.63;;;;;;;8.12;96.81;100475.38;5225904;28;20315;-73
2023/01/13 11:48:21;;;;;;;19.52;6.05;;;;;;;8.17;95.83;100474.53;5215436;28;20482;-74
2023/01/13 11:51:10;;;;;;;20.20;6.28;;;;;;;8.20;94.42;100474.78;5218947;28;20044;-73
2023/01/13 11:54:11;;;;;;;13.40;5.30;;;;;;;8.16;95.26;100479.22;5240753;28;20061;-74
2023/01/13 11:57:19;;;;;;;23.38;6.43;;;;;;;8.18;95.96;100479.78;5243087;28;20033;-75
2023/01/13 12:00:18;;;;;;;18.75;6.75;;;;;;;8.23;96.53;100489.97;5240545;28;20365;-74
2023/01/13 12:02:57;;;;;;;14.82;4.47;;;;;;;8.22;94.06;100483.63;5222476;28;20040;-74
2023/01/13 12:05:36;;;;;;;11.50;3.80;;;;;;;8.21;93.12;100486.69;5226598;28;20045;-74
2023/01/13 12:08:24;;;;;;;15.05;4.47;;;;;;;8.20;93.46;100494.09;5241721;28;20027;-75
2023/01/13 12:11:03;;;;;;;10.80;4.38;;;;;;;8.23;93.13;100495.47;5243355;28;20111;-74
2023/01/13 12:13:50;;;;;;;13.57;4.32;;;;;;;8.26;93.65;100506.00;5242966;28;20030;-73
2023/01/13 12:16:24;;;;;;;13.77;4.35;;;;;;;8.27;92.59;100500.16;5243298;28;20064;-72
2023/01/13 12:19:10;;;;;;;18.70;5.20;;;;;;;8.30;92.46;100492.44;5243076;28;20030;-72
2023/01/13 12:21:55;;;;;;;16.45;5.10;;;;;;;8.33;92.55;100498.19;5241538;28;20384;-72
2023/01/13 12:24:31;;;;;;;18.23;5.97;;;;;;;8.34;90.81;100496.28;5242329;28;20275;-72
2023/01/13 12:27:17;;;;;;;10.57;4.07;;;;;;;8.39;89.90;100507.31;5243043;28;20041;-72
2023/01/13 12:29:54;;;;;;;16.48;4.38;;;;;;;8.38;89.84;100513.94;5242135;28;20106;-73
2023/01/13 12:32:36;;;;;;;12.55;4.20;;;;;;;8.42;89.22;100507.59;5243134;28;20045;-73
2023/01/13 12:35:35;;;;;;;12.80;3.75;;;;;;;8.42;88.94;100504.00;5242672;28;20029;-73
2023/01/13 12:38:21;;;;;;;19.17;5.10;;;;;;;8.40;88.76;100489.66;5229078;28;20025;-73
2023/01/13 12:41:09;;;;;;;14.98;3.97;;;;;;;8.45;88.27;100518.06;5238303;28;20087;-74
2023/01/13 12:46:56;;;;;;;11.95;4.22;;;;;;;8.45;89.13;100526.38;5223370;28;20440;-74
2023/01/13 12:49:32;;;;;;;13.60;4.28;;;;;;;8.42;88.50;100542.69;5222370;28;20026;-78
2023/01/13 12:52:12;;;;;;;11.65;3.70;;;;;;;8.41;88.97;100533.59;5234951;28;20032;-73
2023/01/13 12:54:43;;;;;;;16.40;4.57;;;;;;;8.45;88.80;100536.59;5243496;28;20025;-72
2023/01/13 12:57:15;;;;;;;16.23;4.00;;;;;;;8.42;88.51;100537.19;5242460;28;20049;-72
2023/01/13 12:59:58;;;;;;;10.55;3.72;;;;;;;8.43;89.52;100542.41;5243308;28;20468;-72
2023/01/13 13:02:41;;;;;;;19.50;5.40;;;;;;;8.46;89.83;100554.81;5242933;28;20021;-72
2023/01/13 13:05:13;;;;;;;16.25;4.63;;;;;;;8.46;89.29;100569.50;5242250;28;20443;-72
2023/01/13 13:07:48;;;;;;;11.65;3.33;;;;;;;8.45;88.77;100558.72;5242893;28;20030;-74
2023/01/13 13:10:30;;;;;;;13.45;3.78;;;;;;;8.46;88.87;100566.72;5242210;28;20492;-70
2023/01/13 13:13:17;;;;;;;17.75;4.50;;;;;;;8.43;88.58;100574.75;5242982;28;20032;-69
2023/01/13 13:15:50;;;;;;;11.55;3.40;;;;;;;8.43;88.34;100558.97;5222327;28;20034;-69
2023/01/13 13:18:26;;;;;;;12.68;4.03;;;;;;;8.44;88.40;100574.47;5226398;28;20065;-71
2023/01/13 13:21:08;;;;;;;10.32;3.63;;;;;;;8.44;89.35;100576.41;5242539;28;20033;-74
2023/01/13 13:23:46;;;;;;;11.55;4.05;;;;;;;8.51;90.15;100582.44;5242479;28;20041;-75
2023/01/13 13:26:21;;;;;;;12.75;3.45;;;;;;;8.66;92.11;100582.38;5231986;28;20040;-74
2023/01/13 13:29:20;;;;;;;12.07;3.50;;;;;;;8.57;89.33;100588.81;5221922;28;20052;-73
2023/01/13 13:32:19;;;;;;;12.48;4.00;;;;;;;8.63;89.92;100588.47;5236878;28;20029;-75
2023/01/13 13:35:15;;;;;;;15.65;5.10;;;;;;;8.70;91.25;100608.38;5242031;28;20025;-76
2023/01/13 13:46:45;;;;;;;10.27;5.10;;;;;;;8.77;88.22;100610.84;5241612;28;20037;-75
2023/01/13 13:49:20;;;;;;;13.63;4.45;;;;;;;8.72;88.85;100602.56;5242204;28;20031;-73
2023/01/13 13:52:03;;;;;;;10.80;4.63;;;;;;;8.69;87.78;100617.78;5241773;28;20116;-74
2023/01/13 13:54:34;;;;;;;18.33;3.75;;;;;;;8.67;89.11;100625.53;5241430;28;20033;-73
2023/01/13 13:57:16;;;;;;;9.88;4.07;;;;;;;8.67;88.03;100650.41;5242364;28;20017;-78
2023/01/13 13:59:54;;;;;;;10.27;4.25;;;;;;;8.63;88.36;100643.78;5241018;28;20022;-78
2023/01/13 14:02:29;;;;;;;11.23;3.60;;;;;;;8.62;89.67;100649.59;5241642;28;20048;-77
2023/01/13 14:05:07;;;;;;;14.63;5.05;;;;;;;8.76;92.06;100658.94;5241013;28;20048;-76
2023/01/13 14:07:50;;;;;;;12.77;3.88;;;;;;;8.65;89.13;100685.78;5241210;28;20034;-74
2023/01/13 14:10:27;;;;;;;8.43;3.60;;;;;;;8.61;88.78;100657.03;5241323;28;20018;-76
2023/01/13 14:13:01;;;;;;;12.43;4.50;;;;;;;8.53;90.20;100671.44;5221229;28;20044;-79
2023/01/13 14:15:37;;;;;;;13.38;4.68;;;;;;;8.53;90.39;100660.38;5219790;28;20022;-78
2023/01/13 14:18:18;;;;;;;17.33;4.65;;;;;;;8.51;91.41;100668.13;5221711;28;20488;-79
2023/01/13 14:20:56;;;;;;;12.15;3.50;;;;;;;8.51;91.31;100672.84;5232894;28;20080;-78
2023/01/13 14:23:30;;;;;;;15.50;4.85;;;;;;;8.51;92.16;100678.34;5241253;28;20046;-73
2023/01/13 14:26:07;;;;;;;11.30;4.20;;;;;;;8.47;91.59;100689.97;5240833;28;20044;-73
2023/01/13 14:28:40;;;;;;;8.65;3.75;;;;;;;8.49;91.62;100692.47;5240624;28;20121;-72
2023/01/13 14:31:12;;;;;;;16.45;4.35;;;;;;;8.43;91.94;100699.94;5241154;28;20056;-73
2023/01/13 14:33:46;;;;;;;15.95;3.88;;;;;;;8.47;91.98;100706.56;5241340;28;20029;-73
2023/01/13 14:36:32;;;;;;;12.55;4.22;;;;;;;8.51;91.88;100709.59;5233367;28;20132;-72
2023/01/13 14:39:03;;;;;;;15.43;3.88;;;;;;;8.46;92.66;100715.13;5230279;28;20519;-73
2023/01/13 14:41:37;;;;;;;14.15;5.15;;;;;;;8.46;91.32;100713.22;5238863;28;20038;-73
2023/01/13 14:44:17;;;;;;;10.63;3.63;;;;;;;8.44;91.02;100717.34;5240754;28;20111;-74
2023/01/13 14:46:48;;;;;;;15.30;4.32;;;;;;;8.42;91.22;100706.56;5241316;28;20030;-70
2023/01/13 14:49:50;;;;;;;30.55;18.02;;;;;;;8.46;91.24;100740.00;5237916;28;20028;-69
2023/01/13 14:52:23;;;;;;;10.45;3.83;;;;;;;8.42;90.91;100719.56;5233520;28;20381;-70
2023/01/13 14:55:03;;;;;;;9.57;4.32;;;;;;;8.44;91.42;100728.41;5238286;28;20112;-70
2023/01/13 14:57:38;;;;;;;17.52;5.50;;;;;;;8.44;92.45;100732.00;5238019;28;20040;-69
2023/01/13 15:00:12;;;;;;;17.17;4.85;;;;;;;8.46;92.07;100751.06;5237394;28;20033;-72
2023/01/13 15:02:45;;;;;;;13.60;4.95;;;;;;;8.43;92.42;100743.31;5228645;28;20072;-71
2023/01/13 15:05:21;;;;;;;12.80;6.03;;;;;;;8.44;92.84;100756.88;5240820;28;20133;-73
2023/01/13 15:07:52;;;;;;;11.15;4.15;;;;;;;8.46;92.52;100773.16;5241179;28;20033;-71
2023/01/13 15:10:30;;;;;;;11.88;4.95;;;;;;;8.44;92.64;100767.09;5237348;28;20048;-71
2023/01/13 15:13:04;;;;;;;11.25;5.35;;;;;;;8.43;93.38;100776.47;5237487;28;20026;-70
2023/01/13 15:15:38;;;;;;;12.60;4.35;;;;;;;8.42;92.23;100794.19;5240086;28;20021;-70
2023/01/13 15:18:13;;;;;;;12.75;4.05;;;;;;;8.45;91.83;100793.63;5239880;28;20048;-71
2023/01/13 15:20:45;;;;;;;14.45;4.13;;;;;;;8.43;92.40;100804.13;5240180;28;20025;-70
2023/01/13 15:23:18;;;;;;;17.42;5.63;;;;;;;8.41;93.42;100812.72;5240410;28;20087;-70
2023/01/13 15:25:49;;;;;;;11.95;4.03;;;;;;;8.40;93.39;100821.25;5239541;28;20040;-70
2023/01/13 15:28:23;;;;;;;11.20;4.60;;;;;;;8.36;93.74;100815.44;5243608;28;20379;-71
2023/01/13 15:30:59;;;;;;;16.35;5.25;;;;;;;8.37;93.53;100819.84;5243994;28;20116;-71
2023/01/13 15:33:30;;;;;;;12.30;4.13;;;;;;;8.38;93.28;100834.50;5244514;28;20080;-72
2023/01/13 15:36:02;;;;;;;18.45;4.28;;;;;;;8.36;93.56;100823.72;5244969;28;20029;-71
2023/01/13 15:38:33;;;;;;;14.32;5.15;;;;;;;8.40;92.78;100824.03;5239216;28;20033;-72
2023/01/13 15:41:05;;;;;;;18.15;4.22;;;;;;;8.37;92.98;100817.09;5224035;28;20022;-71
2023/01/13 15:46:39;;;;;;;9.07;4.00;;;;;;;8.42;92.98;100824.59;5242475;28;20049;-71
2023/01/13 15:49:20;;;;;;;16.58;5.55;;;;;;;8.41;93.12;100828.44;5243807;28;20100;-71
2023/01/13 15:51:52;;;;;;;16.73;5.20;;;;;;;8.41;92.86;100833.97;5243417;28;20503;-72
2023/01/13 15:54:23;;;;;;;13.52;4.97;;;;;;;8.45;92.67;100851.66;5244489;28;20021;-71
2023/01/13 15:56:55;;;;;;;14.10;3.97;;;;;;;8.45;91.99;100846.97;5243600;28;20081;-70
2023/01/13 15:59:27;;;;;;;12.32;3.97;;;;;;;8.48;92.20;100851.09;5243344;28;20064;-70
2023/01/13 16:01:58;;;;;;;16.13;5.72;;;;;;;8.48;91.51;100851.09;5243131;28;20056;-71
2023/01/13 16:04:29;;;;;;;13.85;5.57;;;;;;;8.49;91.11;100855.56;5243080;28;20477;-72
2023/01/13 16:07:01;;;;;;;12.82;4.45;;;;;;;8.48;91.34;100871.28;5242677;28;20108;-72
2023/01/13 16:09:32;;;;;;;15.38;5.57;;;;;;;8.50;91.03;100859.97;5243184;28;20052;-73
2023/01/13 16:12:03;;;;;;;12.45;4.30;;;;;;;8.51;90.51;100861.59;5243157;28;20025;-73
2023/01/13 16:14:34;;;;;;;19.20;5.18;;;;;;;8.52;90.77;100868.00;5243398;28;20026;-75
2023/01/13 16:17:18;;;;;;;11.82;5.05;;;;;;;8.52;90.65;100871.56;5244076;28;20022;-72
2023/01/13 16:19:50;;;;;;;13.00;4.38;;;;;;;8.53;89.42;100876.00;5243979;28;20029;-74
2023/01/13 16:22:21;;;;;;;11.32;4.28;;;;;;;8.55;89.01;100879.31;5241674;28;20427;-74
2023/01/13 16:24:53;;;;;;;11.85;4.22;;;;;;;8.57;88.02;100877.13;5243035;28;20033;-73
2023/01/13 16:27:24;;;;;;;11.73;4.32;;;;;;;8.55;88.00;100893.13;5243328;28;20022;-74
2023/01/13 16:29:55;;;;;;;24.08;14.93;;;;;;;8.60;88.65;100895.91;5243634;28;20018;-74
2023/01/13 16:32:27;;;;;;;13.95;4.25;;;;;;;8.60;88.30;100904.19;5243596;28;20033;-76
2023/01/13 16:34:58;;;;;;;12.60;4.10;;;;;;;8.60;87.50;100898.66;5242983;28;20034;-75
2023/01/13 16:37:29;;;;;;;14.45;3.65;;;;;;;8.59;87.80;100899.78;5242448;28;20579;-75
